Time;durP1;ratioP1;P1;durP2;ratioP2;P2;SDS_P1;SDS_P2;PMS_P1;PMS_P2;Temp;Humidity;BMP_temperature;BMP_pressure;BME280_temperature;BME280_humidity;BME280_pressure;Samples;Min_cycle;Max_cycle;Signal;HPM_P1;HPM_P2
2024/01/13 05:56:12;;;;;;;1.73;1.42;;;;;;;-0.23;100.00;98857.47;3022476;23;20023;-90
2024/01/13 05:57:29;;;;;;;0.98;0.73;;;;;;;-0.33;100.00;98851.25;2521941;29;20184;-93
2024/01/13 05:58:46;;;;;;;1.98;1.50;;;;;;;-0.26;100.00;98850.56;2529411;29;20083;-92
2024/01/13 06:00:03;;;;;;;2.22;1.90;;;;;;;-0.44;100.00;98843.31;2513446;29;20106;-92
2024/01/13 06:01:19;;;;;;;3.50;2.13;;;;;;;-0.55;100.00;98848.22;2512313;29;20041;-91
2024/01/13 06:02:36;;;;;;;6.97;2.53;;;;;;;-0.53;100.00;98840.50;2526647;29;20048;-91
2024/01/13 06:03:52;;;;;;;4.68;2.40;;;;;;;-0.54;100.00;98837.09;2523466;29;20044;-92
2024/01/13 06:05:08;;;;;;;4.93;1.90;;;;;;;-0.49;100.00;98835.47;2519275;29;20037;-92
2024/01/13 06:06:26;;;;;;;3.45;2.00;;;;;;;-0.48;100.00;98844.94;2514156;29;20057;-91
2024/01/13 06:07:47;;;;;;;1.33;1.17;;;;;;;-0.39;100.00;98845.97;2514075;29;20053;-92
2024/01/13 06:09:05;;;;;;;2.30;1.40;;;;;;;-0.37;100.00;98844.31;2517926;29;20045;-93
2024/01/13 06:10:21;;;;;;;1.88;1.20;;;;;;;-0.41;100.00;98839.94;2509415;29;20045;-93
2024/01/13 06:11:41;;;;;;;3.60;1.83;;;;;;;-0.21;100.00;98841.22;2506427;29;20146;-93
2024/01/13 06:12:59;;;;;;;2.08;1.38;;;;;;;-0.33;100.00;98834.13;2505799;29;20178;-94
2024/01/13 06:14:15;;;;;;;5.30;2.10;;;;;;;-0.43;100.00;98832.19;2515411;29;20172;-91
2024/01/13 06:15:31;;;;;;;3.67;1.83;;;;;;;-0.40;100.00;98824.53;2526084;29;20036;-91
2024/01/13 06:16:48;;;;;;;4.20;1.60;;;;;;;-0.17;100.00;98821.59;2513697;29;20041;-93
2024/01/13 06:18:04;;;;;;;5.50;2.45;;;;;;;-0.34;100.00;98821.22;2504825;29;20033;-92
2024/01/13 06:19:20;;;;;;;5.47;1.95;;;;;;;-0.22;100.00;98826.63;2519819;29;20093;-93
2024/01/13 06:20:36;;;;;;;2.75;1.73;;;;;;;-0.35;100.00;98822.94;2509862;29;20634;-93
2024/01/13 06:21:52;;;;;;;2.45;1.45;;;;;;;-0.21;100.00;98817.19;2515192;29;20048;-92
2024/01/13 06:23:08;;;;;;;4.35;2.10;;;;;;;-0.15;100.00;98820.75;2519767;29;20041;-92
2024/01/13 06:24:25;;;;;;;1.58;1.10;;;;;;;-0.18;100.00;98815.56;2509728;29;20049;-92
2024/01/13 06:25:41;;;;;;;2.95;1.63;;;;;;;-0.38;100.00;98815.13;2510199;29;20049;-91
2024/01/13 06:26:57;;;;;;;3.67;1.95;;;;;;;-0.28;100.00;98808.47;2515883;29;20036;-92
2024/01/13 06:28:13;;;;;;;2.63;1.52;;;;;;;-0.22;100.00;98803.47;2510160;29;20404;-93
2024/01/13 06:29:31;;;;;;;2.58;1.42;;;;;;;-0.18;100.00;98804.41;2524103;29;20413;-93
2024/01/13 06:30:47;;;;;;;2.20;1.30;;;;;;;-0.33;100.00;98803.25;2536345;29;20504;-94
2024/01/13 06:32:03;;;;;;;3.13;1.60;;;;;;;-0.40;100.00;98803.09;2527374;29;20440;-93
2024/01/13 06:33:19;;;;;;;2.90;1.40;;;;;;;-0.31;100.00;98801.56;2522854;29;20041;-92
2024/01/13 06:34:36;;;;;;;1.25;0.82;;;;;;;-0.21;100.00;98805.22;2515837;29;20034;-93
2024/01/13 06:35:52;;;;;;;3.53;1.90;;;;;;;-0.32;100.00;98802.41;2520508;29;20116;-93
2024/01/13 06:37:08;;;;;;;1.60;1.17;;;;;;;-0.14;100.00;98811.34;2509780;29;20102;-92
2024/01/13 06:38:24;;;;;;;1.10;1.00;;;;;;;-0.22;100.00;98811.19;2523753;29;20041;-93
2024/01/13 06:39:41;;;;;;;2.83;1.27;;;;;;;-0.05;100.00;98810.66;2521862;29;20645;-94
2024/01/13 06:40:57;;;;;;;3.35;1.70;;;;;;;-0.08;100.00;98810.63;2524489;29;20722;-92
2024/01/13 06:42:14;;;;;;;1.70;1.23;;;;;;;-0.18;100.00;98809.56;2525257;29;20109;-93
2024/01/13 06:43:30;;;;;;;3.17;1.98;;;;;;;-0.33;100.00;98810.09;2529504;29;20028;-93
2024/01/13 06:44:48;;;;;;;4.63;2.40;;;;;;;-0.44;100.00;98820.16;2525159;29;20073;-93
2024/01/13 06:46:07;;;;;;;6.78;1.92;;;;;;;-0.29;100.00;98814.44;2511065;29;20053;-93
2024/01/13 06:47:23;;;;;;;5.88;2.00;;;;;;;-0.15;100.00;98815.63;2524222;29;20088;-94
2024/01/13 06:48:39;;;;;;;2.97;1.98;;;;;;;-0.14;100.00;98811.34;2536248;29;20032;-94
2024/01/13 06:49:55;;;;;;;4.60;2.28;;;;;;;-0.35;100.00;98804.94;2526323;29;20100;-94
2024/01/13 06:51:13;;;;;;;2.42;1.67;;;;;;;-0.34;100.00;98804.09;2529704;29;20088;-93
2024/01/13 06:52:30;;;;;;;2.08;1.73;;;;;;;-0.43;100.00;98803.88;2536109;29;20108;-92
2024/01/13 06:53:46;;;;;;;3.90;1.73;;;;;;;-0.38;100.00;98798.84;2535934;29;20041;-93
2024/01/13 06:55:02;;;;;;;2.00;1.33;;;;;;;-0.40;100.00;98808.22;2532962;29;20052;-93
2024/01/13 06:56:18;;;;;;;2.40;1.63;;;;;;;-0.35;100.00;98806.63;2528287;29;20155;-94
2024/01/13 06:57:37;;;;;;;1.10;0.88;;;;;;;-0.31;100.00;98803.25;2535658;29;20028;-92
2024/01/13 06:58:54;;;;;;;2.63;1.52;;;;;;;-0.35;100.00;98809.19;2535477;29;20100;-92
2024/01/13 07:00:15;;;;;;;3.40;2.03;;;;;;;-0.37;100.00;98813.44;2524070;29;20045;-93
2024/01/13 07:01:31;;;;;;;2.42;1.92;;;;;;;-0.45;100.00;98815.84;2529526;29;20052;-92
2024/01/13 07:02:47;;;;;;;2.15;1.52;;;;;;;-0.31;100.00;98818.69;2535555;29;20025;-91
2024/01/13 07:04:04;;;;;;;3.67;1.50;;;;;;;-0.11;100.00;98813.13;2534386;29;21244;-93
2024/01/13 07:05:20;;;;;;;4.80;2.28;;;;;;;-0.48;100.00;98808.91;2530197;29;20041;-92
2024/01/13 07:06:36;;;;;;;3.17;2.17;;;;;;;-0.46;100.00;98814.09;2531909;29;20084;-93
2024/01/13 07:07:53;;;;;;;3.10;2.33;;;;;;;-0.52;100.00;98811.38;2525335;29;20045;-92
2024/01/13 07:09:10;;;;;;;2.90;1.52;;;;;;;-0.44;100.00;98809.84;2531992;29;20500;-92
2024/01/13 07:10:28;;;;;;;2.60;1.92;;;;;;;-0.37;100.00;98808.28;2536528;29;20091;-92
2024/01/13 07:11:50;;;;;;;4.88;1.63;;;;;;;-0.36;100.00;98815.16;2534841;29;20032;-91
2024/01/13 07:13:07;;;;;;;2.25;1.48;;;;;;;-0.55;100.00;98804.47;2535220;29;20112;-92
2024/01/13 07:14:26;;;;;;;4.28;2.33;;;;;;;-0.57;100.00;98803.56;2525946;29;20044;-92
2024/01/13 07:15:42;;;;;;;3.35;2.05;;;;;;;-0.43;100.00;98802.16;2523264;29;20516;-90
2024/01/13 07:16:59;;;;;;;4.30;2.67;;;;;;;-0.58;100.00;98802.69;2525761;29;20112;-90
2024/01/13 07:18:15;;;;;;;4.20;2.30;;;;;;;-0.49;100.00;98804.59;2518389;29;20049;-92
2024/01/13 07:19:31;;;;;;;5.38;3.08;;;;;;;-0.55;100.00;98799.34;2528859;29;20099;-92
2024/01/13 07:20:49;;;;;;;3.58;2.28;;;;;;;-0.44;100.00;98805.56;2524385;29;20044;-93
2024/01/13 07:22:05;;;;;;;3.55;2.22;;;;;;;-0.52;100.00;98803.66;2528333;29;20028;-93
2024/01/13 07:23:22;;;;;;;3.97;2.33;;;;;;;-0.45;100.00;98800.41;2534036;29;20085;-92
2024/01/13 07:24:38;;;;;;;3.92;2.53;;;;;;;-0.53;100.00;98801.94;2534271;29;20040;-92
2024/01/13 07:25:54;;;;;;;4.43;2.75;;;;;;;-0.61;100.00;98805.22;2536485;29;20036;-93
2024/01/13 07:27:12;;;;;;;3.42;2.38;;;;;;;-0.51;100.00;98806.28;2535246;29;20064;-93
2024/01/13 07:28:29;;;;;;;2.67;1.90;;;;;;;-0.52;100.00;98799.41;2536420;29;20036;-93
2024/01/13 07:29:46;;;;;;;4.72;3.00;;;;;;;-0.55;100.00;98804.47;2525138;29;20041;-93
2024/01/13 07:31:02;;;;;;;4.05;2.45;;;;;;;-0.44;100.00;98804.72;2529086;29;20031;-93
2024/01/13 07:32:18;;;;;;;4.55;2.92;;;;;;;-0.58;100.00;98809.53;2533250;29;20096;-94
2024/01/13 07:33:35;;;;;;;4.00;2.28;;;;;;;-0.37;100.00;98806.56;2534045;29;20099;-93
2024/01/13 07:34:51;;;;;;;4.95;2.75;;;;;;;-0.54;100.00;98810.47;2536066;29;20028;-93
2024/01/13 07:36:07;;;;;;;2.53;1.77;;;;;;;-0.39;100.00;98818.53;2525045;29;20025;-93
2024/01/13 07:37:24;;;;;;;2.13;1.73;;;;;;;-0.42;100.00;98808.19;2528985;29;20068;-94
2024/01/13 07:38:40;;;;;;;3.80;2.67;;;;;;;-0.48;100.00;98808.91;2534160;29;20036;-93
2024/01/13 07:39:56;;;;;;;3.08;1.73;;;;;;;-0.44;100.00;98815.84;2514857;29;20125;-93
2024/01/13 07:41:13;;;;;;;2.83;1.55;;;;;;;-0.29;100.00;98806.72;2519730;29;20076;-93
2024/01/13 07:42:29;;;;;;;3.00;1.90;;;;;;;-0.40;100.00;98806.50;2529840;29;20040;-93
2024/01/13 07:43:45;;;;;;;2.92;1.98;;;;;;;-0.26;100.00;98800.78;2524297;29;20109;-94
2024/01/13 07:45:02;;;;;;;3.40;2.10;;;;;;;-0.44;100.00;98799.56;2528794;29;20048;-93
2024/01/13 07:46:18;;;;;;;6.38;2.70;;;;;;;-0.44;100.00;98799.56;2534366;29;20040;-92
2024/01/13 07:47:35;;;;;;;5.10;2.72;;;;;;;-0.47;100.00;98804.66;2524356;29;20348;-93
2024/01/13 07:48:52;;;;;;;4.05;2.35;;;;;;;-0.36;100.00;98797.16;2518222;29;20382;-93
2024/01/13 07:50:09;;;;;;;3.22;2.17;;;;;;;-0.40;100.00;98800.50;2525149;29;20045;-93
2024/01/13 07:51:25;;;;;;;4.60;2.75;;;;;;;-0.48;100.00;98801.19;2530331;29;20059;-94
2024/01/13 07:52:41;;;;;;;3.33;1.98;;;;;;;-0.28;100.00;98793.03;2524459;29;20061;-94
2024/01/13 07:53:58;;;;;;;4.72;2.28;;;;;;;-0.40;100.00;98792.78;2530128;29;20032;-93
2024/01/13 07:55:14;;;;;;;7.68;1.73;;;;;;;-0.24;100.00;98800.00;2536482;29;20064;-93
2024/01/13 07:56:30;;;;;;;2.70;1.73;;;;;;;-0.33;100.00;98795.53;2534067;29;20053;-93
2024/01/13 07:57:46;;;;;;;4.60;2.80;;;;;;;-0.39;100.00;98791.97;2535660;29;20449;-92
2024/01/13 07:59:04;;;;;;;3.40;2.05;;;;;;;-0.49;100.00;98788.28;2534439;29;20589;-93
2024/01/13 08:00:22;;;;;;;2.25;1.98;;;;;;;-0.40;100.00;98792.78;2534237;29;20421;-93
2024/01/13 08:01:39;;;;;;;3.65;2.30;;;;;;;-0.55;100.00;98783.91;2535165;29;20099;-95
2024/01/13 08:02:56;;;;;;;5.60;2.50;;;;;;;-0.47;100.00;98787.50;2514699;29;20044;-93
2024/01/13 08:04:14;;;;;;;3.13;1.80;;;;;;;-0.27;100.00;98793.91;2508430;29;20053;-92
2024/01/13 08:05:34;;;;;;;4.90;2.38;;;;;;;-0.40;100.00;98791.06;2523455;29;20099;-93
2024/01/13 08:06:51;;;;;;;2.60;2.03;;;;;;;-0.28;100.00;98787.88;2533838;29;20513;-93
2024/01/13 08:08:07;;;;;;;1.13;0.98;;;;;;;-0.06;100.00;98786.66;2533844;29;20048;-93
2024/01/13 08:09:24;;;;;;;1.60;1.50;;;;;;;-0.13;100.00;98786.50;2535109;29;20040;-92
2024/01/13 08:10:40;;;;;;;2.80;1.80;;;;;;;-0.05;100.00;98790.09;2525376;29;20085;-93
2024/01/13 08:11:56;;;;;;;4.28;1.80;;;;;;;-0.31;100.00;98782.69;2519926;29;20041;-95
2024/01/13 08:13:14;;;;;;;3.58;2.08;;;;;;;-0.09;100.00;98784.00;2529709;29;20402;-93
2024/01/13 08:14:30;;;;;;;3.58;1.75;;;;;;;-0.20;100.00;98786.34;2524041;29;20040;-93
2024/01/13 08:15:47;;;;;;;2.35;1.15;;;;;;;-0.04;100.00;98786.66;2528322;29;20505;-93
2024/01/13 08:17:04;;;;;;;4.35;2.83;;;;;;;-0.33;100.00;98784.34;2534346;29;20092;-94
2024/01/13 08:18:20;;;;;;;2.95;1.92;;;;;;;-0.33;100.00;98787.81;2524721;29;20037;-93
2024/01/13 08:19:39;;;;;;;4.40;2.42;;;;;;;-0.43;100.00;98786.72;2527790;29;20505;-93
2024/01/13 08:20:56;;;;;;;1.48;0.85;;;;;;;-0.11;100.00;98782.25;2526010;29;20041;-94
2024/01/13 08:22:12;;;;;;;2.88;1.05;;;;;;;-0.05;100.00;98782.34;2529174;29;20032;-92
2024/01/13 08:23:28;;;;;;;2.70;1.60;;;;;;;-0.12;100.00;98783.94;2535856;29;20044;-92
2024/01/13 08:24:45;;;;;;;3.28;1.67;;;;;;;-0.21;100.00;98788.88;2524263;29;20045;-92
2024/01/13 08:26:02;;;;;;;1.15;0.98;;;;;;;-0.03;100.00;98790.97;2527161;29;20052;-94
2024/01/13 08:27:18;;;;;;;2.72;1.98;;;;;;;-0.26;100.00;98786.25;2535671;29;20029;-94
2024/01/13 08:28:34;;;;;;;2.28;1.58;;;;;;;0.07;100.00;98789.44;2535293;29;20036;-93
2024/01/13 08:29:50;;;;;;;1.80;1.52;;;;;;;0.00;100.00;98785.91;2533668;29;20032;-92
2024/01/13 08:31:09;;;;;;;3.20;2.25;;;;;;;-0.23;100.00;98775.13;2536031;29;20036;-91
2024/01/13 08:32:25;;;;;;;4.70;2.70;;;;;;;-0.35;100.00;98775.75;2524380;29;20033;-92
2024/01/13 08:33:41;;;;;;;2.65;1.35;;;;;;;0.01;100.00;98772.19;2518510;29;20041;-93
2024/01/13 08:34:58;;;;;;;2.25;1.48;;;;;;;-0.12;100.00;98771.06;2528498;29;20076;-92
2024/01/13 08:36:15;;;;;;;2.30;1.58;;;;;;;0.00;100.00;98762.75;2528831;29;20061;-94
2024/01/13 08:37:31;;;;;;;2.45;1.45;;;;;;;0.03;100.00;98765.38;2531535;29;20044;-94
2024/01/13 08:38:47;;;;;;;3.83;2.08;;;;;;;-0.16;100.00;98769.28;2536052;29;20044;-94
2024/01/13 08:40:04;;;;;;;2.75;1.50;;;;;;;0.23;100.00;98764.88;2524968;29;20048;-92
2024/01/13 08:41:21;;;;;;;1.23;0.93;;;;;;;0.10;100.00;98764.63;2527928;29;20100;-94
2024/01/13 08:42:40;;;;;;;2.65;1.60;;;;;;;0.04;100.00;98769.69;2534957;29;20032;-93
2024/01/13 08:43:56;;;;;;;3.33;1.15;;;;;;;0.17;100.00;98769.91;2536940;29;20052;-95
2024/01/13 08:45:13;;;;;;;2.95;1.73;;;;;;;-0.01;100.00;98763.56;2523755;29;20390;-92
2024/01/13 08:46:29;;;;;;;3.47;2.13;;;;;;;-0.05;100.00;98772.94;2528020;29;20044;-93
2024/01/13 08:47:45;;;;;;;3.78;1.83;;;;;;;-0.07;100.00;98769.47;2505213;29;20050;-92
2024/01/13 08:49:02;;;;;;;3.03;1.25;;;;;;;-0.13;100.00;98761.63;2516971;29;20036;-94
2024/01/13 08:50:18;;;;;;;2.45;1.92;;;;;;;-0.15;100.00;98756.44;2535880;29;20024;-95
2024/01/13 08:51:34;;;;;;;2.80;1.65;;;;;;;0.06;100.00;98754.25;2535165;29;20120;-91
2024/01/13 08:52:54;;;;;;;3.45;2.05;;;;;;;-0.13;100.00;98748.75;2523467;29;20049;-95
2024/01/13 08:54:11;;;;;;;4.68;2.47;;;;;;;-0.13;100.00;98748.75;2528589;29;20489;-92
2024/01/13 08:55:27;;;;;;;2.97;1.90;;;;;;;-0.18;100.00;98758.09;2523462;29;20068;-91
2024/01/13 08:56:43;;;;;;;5.50;2.72;;;;;;;-0.14;100.00;98747.00;2527073;29;20056;-93
2024/01/13 08:57:59;;;;;;;2.45;1.65;;;;;;;-0.18;100.00;98734.94;2524770;29;20033;-92
2024/01/13 08:59:15;;;;;;;3.58;2.05;;;;;;;-0.22;100.00;98736.56;2528939;29;20032;-92
2024/01/13 09:00:32;;;;;;;4.03;2.17;;;;;;;-0.12;100.00;98731.63;2523917;29;20513;-94
2024/01/13 09:01:48;;;;;;;3.10;1.95;;;;;;;-0.20;100.00;98740.03;2517772;29;20142;-91
2024/01/13 09:03:04;;;;;;;3.40;1.42;;;;;;;0.09;100.00;98739.72;2530548;29;20117;-92
2024/01/13 09:04:21;;;;;;;4.20;3.00;;;;;;;-0.19;100.00;98746.91;2535728;29;20040;-93
2024/01/13 09:05:37;;;;;;;1.88;1.30;;;;;;;-0.01;100.00;98741.28;2526440;29;20049;-91
2024/01/13 09:06:53;;;;;;;2.75;2.05;;;;;;;-0.15;100.00;98725.53;2530624;29;20040;-92
2024/01/13 09:08:09;;;;;;;3.47;1.90;;;;;;;-0.04;100.00;98737.75;2525969;29;20036;-92
2024/01/13 09:09:26;;;;;;;1.35;1.25;;;;;;;-0.03;100.00;98731.78;2529109;29;20448;-92
2024/01/13 09:10:42;;;;;;;3.47;1.50;;;;;;;-0.05;100.00;98726.63;2533269;29;20087;-92
2024/01/13 09:11:58;;;;;;;3.80;1.98;;;;;;;-0.09;100.00;98716.22;2523995;29;20044;-93
2024/01/13 09:13:14;;;;;;;1.23;1.02;;;;;;;0.12;100.00;98729.47;2520101;29;20045;-93
2024/01/13 09:14:31;;;;;;;2.28;1.58;;;;;;;0.15;100.00;98722.69;2528876;29;20088;-92
2024/01/13 09:15:47;;;;;;;3.88;2.30;;;;;;;-0.07;100.00;98727.41;2525884;29;20029;-92
2024/01/13 09:17:03;;;;;;;3.85;2.78;;;;;;;-0.23;100.00;98721.97;2522659;29;20036;-92
2024/01/13 09:18:20;;;;;;;2.08;1.20;;;;;;;0.06;100.00;98723.34;2530505;29;20060;-92
2024/01/13 09:19:37;;;;;;;1.98;1.10;;;;;;;0.26;100.00;98723.72;2523102;29;20187;-93
2024/01/13 09:20:53;;;;;;;4.68;2.03;;;;;;;0.03;100.00;98721.59;2517750;29;20623;-93
2024/01/13 09:22:09;;;;;;;3.42;1.63;;;;;;;0.10;100.00;98727.75;2517560;29;20085;-92
2024/01/13 09:23:26;;;;;;;2.38;1.70;;;;;;;0.22;100.00;98724.50;2529467;29;20032;-93
2024/01/13 09:24:42;;;;;;;3.97;2.08;;;;;;;0.35;100.00;98720.44;2535939;29;20033;-93
2024/01/13 09:25:58;;;;;;;4.72;2.17;;;;;;;-0.11;100.00;98718.75;2535025;29;20037;-93
2024/01/13 09:27:17;;;;;;;2.55;1.50;;;;;;;0.11;100.00;98716.59;2533506;29;20060;-93
2024/01/13 09:28:33;;;;;;;3.33;1.92;;;;;;;0.15;100.00;98715.81;2535852;29;20393;-92
2024/01/13 09:29:50;;;;;;;2.60;1.60;;;;;;;0.29;100.00;98718.66;2524239;29;20037;-93
2024/01/13 09:31:06;;;;;;;3.50;1.63;;;;;;;0.32;100.00;98716.13;2519538;29;20473;-92
2024/01/13 09:32:22;;;;;;;3.45;1.77;;;;;;;0.09;100.00;98708.84;2520176;29;20029;-93
2024/01/13 09:33:40;;;;;;;3.28;2.42;;;;;;;-0.02;100.00;98708.66;2528246;29;20446;-93
2024/01/13 09:34:57;;;;;;;3.10;1.92;;;;;;;-0.01;100.00;98709.50;2525051;29;20033;-93
2024/01/13 09:36:13;;;;;;;3.30;1.67;;;;;;;0.21;100.00;98715.94;2518351;29;20093;-93
2024/01/13 09:37:29;;;;;;;1.83;1.50;;;;;;;0.42;100.00;98714.56;2517383;29;20076;-93
2024/01/13 09:38:45;;;;;;;3.13;1.85;;;;;;;0.23;100.00;98703.94;2529343;29;20032;-93
2024/01/13 09:40:04;;;;;;;1.35;1.05;;;;;;;0.31;100.00;98698.94;2534180;29;20116;-93
2024/01/13 09:41:20;;;;;;;2.83;1.75;;;;;;;0.30;100.00;98699.78;2534950;29;20084;-93
2024/01/13 09:42:55;;;;;;;3.40;2.00;;;;;;;0.12;100.00;98702.88;2523199;29;20053;-93
2024/01/13 09:44:24;;;;;;;4.68;2.05;;;;;;;0.24;100.00;98692.81;2531795;29;20536;-94
2024/01/13 09:45:44;;;;;;;3.00;1.90;;;;;;;0.28;100.00;98696.31;2533669;29;20036;-93
2024/01/13 09:47:01;;;;;;;5.82;2.60;;;;;;;0.15;100.00;98694.38;2524912;29;20057;-92
2024/01/13 09:48:21;;;;;;;2.15;1.45;;;;;;;0.30;100.00;98697.19;2520231;29;20049;-92
2024/01/13 09:49:39;;;;;;;3.95;2.10;;;;;;;0.21;100.00;98699.59;2517681;29;20045;-94
2024/01/13 09:50:58;;;;;;;1.88;1.27;;;;;;;0.51;100.00;98688.09;2518660;29;20045;-93
2024/01/13 09:52:14;;;;;;;4.32;2.08;;;;;;;0.32;100.00;98690.38;2529087;29;20516;-93
2024/01/13 09:53:31;;;;;;;2.85;1.63;;;;;;;0.34;100.00;98678.38;2535149;29;20032;-93
2024/01/13 09:54:55;;;;;;;1.52;1.38;;;;;;;0.41;100.00;98676.78;2534750;29;20029;-93
2024/01/13 09:56:22;;;;;;;4.18;1.48;;;;;;;0.61;100.00;98681.38;2531971;29;20112;-92
2024/01/13 09:57:38;;;;;;;3.35;2.05;;;;;;;0.52;100.00;98674.38;2526858;29;20582;-92
2024/01/13 09:58:55;;;;;;;3.05;2.33;;;;;;;0.15;100.00;98674.63;2529922;29;20084;-93
2024/01/13 10:00:13;;;;;;;4.57;1.92;;;;;;;0.35;100.00;98676.66;2533317;29;20069;-92
2024/01/13 10:01:30;;;;;;;4.05;2.63;;;;;;;0.48;100.00;98673.44;2514550;29;20049;-92
2024/01/13 10:02:46;;;;;;;3.25;2.47;;;;;;;0.39;100.00;98676.72;2517609;29;20584;-93
2024/01/13 10:04:02;;;;;;;2.50;1.25;;;;;;;0.50;100.00;98673.47;2526663;29;20872;-93
2024/01/13 10:05:19;;;;;;;3.42;2.22;;;;;;;0.26;100.00;98674.78;2535391;29;20048;-92
2024/01/13 10:06:36;;;;;;;4.72;2.75;;;;;;;0.09;100.00;98670.22;2532646;29;20150;-92
2024/01/13 10:07:53;;;;;;;3.58;2.38;;;;;;;0.18;100.00;98681.53;2534916;29;20052;-92
2024/01/13 10:09:10;;;;;;;3.08;2.30;;;;;;;0.05;100.00;98685.56;2534515;29;20084;-93
2024/01/13 10:10:28;;;;;;;3.60;2.45;;;;;;;0.06;100.00;98677.91;2515747;29;20120;-93
2024/01/13 10:11:44;;;;;;;4.72;2.85;;;;;;;0.02;100.00;98680.38;2522501;29;20058;-93
2024/01/13 10:13:01;;;;;;;5.35;3.80;;;;;;;0.10;100.00;98676.25;2525556;29;20049;-92
2024/01/13 10:14:17;;;;;;;3.83;2.63;;;;;;;0.00;100.00;98664.94;2526535;29;20044;-93
2024/01/13 10:15:34;;;;;;;3.20;1.95;;;;;;;0.19;100.00;98671.25;2533486;29;20033;-93
2024/01/13 10:16:50;;;;;;;4.47;2.55;;;;;;;0.19;100.00;98668.66;2513682;29;20050;-93
2024/01/13 10:18:06;;;;;;;6.13;3.17;;;;;;;0.18;100.00;98673.81;2522325;29;20031;-93
2024/01/13 10:19:24;;;;;;;5.05;2.33;;;;;;;0.17;100.00;98661.78;2533069;29;20047;-93
2024/01/13 10:20:41;;;;;;;4.28;2.65;;;;;;;0.09;100.00;98656.50;2533773;29;20044;-93
2024/01/13 10:21:57;;;;;;;5.93;3.05;;;;;;;0.17;100.00;98649.75;2534840;29;20029;-92
2024/01/13 10:23:14;;;;;;;5.22;3.08;;;;;;;0.15;100.00;98648.88;2524597;29;20041;-92
2024/01/13 10:24:31;;;;;;;5.28;3.30;;;;;;;0.07;100.00;98642.69;2528776;29;20051;-93
2024/01/13 10:25:49;;;;;;;5.00;3.00;;;;;;;0.00;100.00;98641.75;2523650;29;20505;-92
2024/01/13 10:27:08;;;;;;;3.83;2.40;;;;;;;0.12;100.00;98633.38;2528806;29;20085;-93
2024/01/13 10:28:24;;;;;;;3.70;2.28;;;;;;;0.21;100.00;98638.69;2533900;29;20556;-93
2024/01/13 10:29:42;;;;;;;4.45;2.90;;;;;;;0.12;100.00;98631.66;2522536;29;20064;-93
2024/01/13 10:31:00;;;;;;;5.15;3.40;;;;;;;0.05;100.00;98628.94;2509938;29;20049;-91
2024/01/13 10:32:17;;;;;;;5.25;2.42;;;;;;;0.22;100.00;98631.81;2522161;29;20200;-92
2024/01/13 10:33:33;;;;;;;3.55;2.20;;;;;;;0.08;100.00;98626.44;2534776;29;20402;-93
2024/01/13 10:34:53;;;;;;;4.38;2.50;;;;;;;0.24;100.00;98622.41;2534945;29;20091;-92
2024/01/13 10:36:10;;;;;;;4.32;2.80;;;;;;;0.11;100.00;98622.19;2523118;29;20129;-93
2024/01/13 10:37:27;;;;;;;6.00;3.08;;;;;;;0.29;100.00;98623.38;2528739;29;20080;-92
2024/01/13 10:38:44;;;;;;;4.57;2.80;;;;;;;0.30;100.00;98622.53;2532795;29;20036;-91
2024/01/13 10:40:00;;;;;;;5.03;2.53;;;;;;;0.45;100.00;98608.16;2524233;29;20049;-92
2024/01/13 10:41:26;;;;;;;6.63;3.42;;;;;;;0.20;100.00;98610.31;2528491;29;20044;-91
2024/01/13 10:42:48;;;;;;;7.78;3.40;;;;;;;0.17;100.00;98603.41;2523470;29;20160;-93
2024/01/13 10:44:07;;;;;;;7.22;4.10;;;;;;;0.00;100.00;98600.56;2528581;29;20091;-91
2024/01/13 10:45:25;;;;;;;6.70;3.90;;;;;;;0.07;100.00;98602.41;2534991;29;20048;-92
2024/01/13 10:46:46;;;;;;;5.07;3.30;;;;;;;-0.11;100.00;98594.38;2523280;29;20096;-91
2024/01/13 10:48:11;;;;;;;4.47;2.88;;;;;;;0.24;100.00;98604.38;2529300;29;20036;-93
2024/01/13 10:49:31;;;;;;;4.80;2.70;;;;;;;0.14;100.00;98595.63;2513346;29;20033;-93
2024/01/13 10:50:50;;;;;;;5.80;3.75;;;;;;;0.03;100.00;98597.16;2525612;29;20035;-91
2024/01/13 10:52:06;;;;;;;5.82;3.10;;;;;;;-0.02;100.00;98591.94;2533477;29;20056;-92
2024/01/13 10:53:29;;;;;;;5.00;3.20;;;;;;;0.04;100.00;98589.47;2532850;29;20101;-93
2024/01/13 10:54:45;;;;;;;3.90;2.47;;;;;;;0.24;100.00;98592.38;2526101;29;20065;-93
2024/01/13 10:56:04;;;;;;;4.57;2.83;;;;;;;0.06;100.00;98585.22;2529195;29;20024;-92
2024/01/13 10:57:23;;;;;;;5.60;3.17;;;;;;;-0.02;100.00;98585.09;2536154;29;20667;-92
2024/01/13 10:58:42;;;;;;;3.47;1.90;;;;;;;0.28;100.00;98590.72;2534696;29;20032;-92
2024/01/13 10:59:59;;;;;;;4.05;2.10;;;;;;;0.39;100.00;98589.16;2524689;29;20037;-92
2024/01/13 11:01:15;;;;;;;7.20;3.22;;;;;;;0.28;100.00;98578.69;2520895;29;20074;-92
2024/01/13 11:02:33;;;;;;;5.13;2.92;;;;;;;0.20;100.00;98584.56;2529201;29;20579;-93
2024/01/13 11:03:50;;;;;;;4.63;2.78;;;;;;;0.00;100.00;98582.56;2526064;29;20056;-92
2024/01/13 11:05:08;;;;;;;6.47;3.25;;;;;;;-0.11;100.00;98579.78;2530221;29;20057;-92
2024/01/13 11:06:25;;;;;;;5.55;3.13;;;;;;;0.04;100.00;98580.88;2534666;29;20025;-92
2024/01/13 11:07:41;;;;;;;5.95;2.70;;;;;;;-0.02;100.00;98579.94;2526270;29;20037;-93
2024/01/13 11:08:58;;;;;;;5.43;2.55;;;;;;;-0.07;100.00;98578.13;2519942;29;20156;-92
2024/01/13 11:10:33;;;;;;;3.63;2.30;;;;;;;0.05;100.00;98569.72;2528840;29;20036;-92
2024/01/13 11:12:08;;;;;;;5.82;3.30;;;;;;;-0.01;100.00;98568.81;2537023;29;20089;-93
2024/01/13 11:13:28;;;;;;;5.68;3.60;;;;;;;0.06;100.00;98561.16;2524762;29;20636;-92
2024/01/13 11:15:03;;;;;;;6.53;3.58;;;;;;;-0.21;100.00;98552.16;2528625;29;20028;-92
2024/01/13 11:16:22;;;;;;;7.63;4.00;;;;;;;-0.36;100.00;98547.63;2533280;29;20614;-91
2024/01/13 11:17:40;;;;;;;5.18;3.65;;;;;;;-0.22;100.00;98538.44;2529856;29;20033;-94
2024/01/13 11:18:58;;;;;;;6.15;3.50;;;;;;;-0.28;100.00;98530.59;2532303;29;20048;-91
2024/01/13 11:20:18;;;;;;;6.00;3.15;;;;;;;-0.08;100.00;98536.06;2534878;29;20040;-92
2024/01/13 11:21:34;;;;;;;7.50;3.67;;;;;;;-0.17;100.00;98533.38;2535147;29;20405;-92
2024/01/13 11:22:58;;;;;;;4.82;2.88;;;;;;;-0.11;100.00;98524.88;2535134;29;20494;-92
2024/01/13 11:24:15;;;;;;;4.05;2.92;;;;;;;-0.08;100.00;98523.19;2536042;29;20061;-92
2024/01/13 11:25:34;;;;;;;5.50;3.22;;;;;;;-0.03;100.00;98523.28;2525686;29;20045;-92
2024/01/13 11:26:50;;;;;;;5.22;3.47;;;;;;;-0.05;100.00;98523.28;2519090;29;20066;-92
2024/01/13 11:28:13;;;;;;;3.83;2.35;;;;;;;0.06;100.00;98523.44;2518101;29;20152;-92
2024/01/13 11:29:30;;;;;;;;;;;;;;;0.07;100.00;98517.44;2530204;29;20088;-93
2024/01/13 11:30:49;;;;;;;8.50;4.38;;;;;;;-0.06;100.00;98525.81;2535801;29;19975;-92
2024/01/13 11:32:06;;;;;;;4.68;2.50;;;;;;;0.13;100.00;98520.09;2524251;29;20048;-92
2024/01/13 11:33:25;;;;;;;4.68;3.08;;;;;;;0.05;100.00;98508.84;2524190;29;20080;-92
2024/01/13 11:34:41;;;;;;;7.10;3.88;;;;;;;-0.09;100.00;98500.03;2531423;29;20092;-94
2024/01/13 11:35:58;;;;;;;9.98;5.40;;;;;;;-0.34;100.00;98489.34;2524162;29;20033;-95
2024/01/13 11:37:14;;;;;;;7.68;4.35;;;;;;;-0.18;100.00;98491.31;2529530;29;20446;-91
2024/01/13 11:38:32;;;;;;;7.45;3.65;;;;;;;-0.09;100.00;98495.72;2535896;29;20032;-94
2024/01/13 11:39:50;;;;;;;7.85;4.68;;;;;;;-0.23;100.00;98503.25;2515400;29;20617;-94
2024/01/13 11:41:06;;;;;;;6.05;4.47;;;;;;;-0.21;100.00;98495.53;2502779;29;20150;-94
2024/01/13 11:42:23;;;;;;;6.28;3.25;;;;;;;-0.06;100.00;98492.34;2522118;29;20069;-93
2024/01/13 11:43:39;;;;;;;5.18;2.67;;;;;;;0.14;100.00;98487.50;2524531;29;20048;-93
2024/01/13 11:44:56;;;;;;;4.65;2.72;;;;;;;-0.06;100.00;98497.50;2518136;29;20105;-94
2024/01/13 11:46:14;;;;;;;4.68;2.58;;;;;;;0.10;100.00;98499.47;2523354;29;20041;-93
2024/01/13 11:47:31;;;;;;;6.32;3.03;;;;;;;0.19;100.00;98506.44;2519851;29;20045;-93
2024/01/13 11:48:47;;;;;;;7.03;3.75;;;;;;;-0.20;100.00;98508.44;2530640;29;20044;-94
2024/01/13 11:50:34;;;;;;;8.10;4.90;;;;;;;-0.08;100.00;98527.50;2535000;29;20115;-94
2024/01/13 11:52:15;;;;;;;8.73;4.50;;;;;;;-0.26;100.00;98516.06;2533132;29;20095;-91
2024/01/13 11:53:39;;;;;;;9.02;3.83;;;;;;;-0.21;100.00;98516.13;2535698;29;20037;-94
2024/01/13 11:54:56;;;;;;;7.57;3.78;;;;;;;-0.22;100.00;98512.69;2534837;29;20441;-92
2024/01/13 11:56:14;;;;;;;7.32;4.03;;;;;;;-0.20;100.00;98512.75;2534072;29;20405;-93
2024/01/13 11:57:30;;;;;;;4.82;3.15;;;;;;;-0.16;100.00;98512.78;2535071;29;20080;-92
2024/01/13 11:58:46;;;;;;;3.75;1.80;;;;;;;0.13;100.00;98499.50;2536100;29;20092;-93